createdAt,value
2018-05-10T00:01:59.563Z,15.19
2018-05-10T00:04:27.217Z,15.07
2018-05-10T00:06:54.763Z,15.26
2018-05-10T00:09:22.342Z,15.33
2018-05-10T00:11:49.870Z,15.21
2018-05-10T00:14:17.449Z,15.17
2018-05-10T00:16:45.021Z,15.13
2018-05-10T00:19:12.580Z,15.26
2018-05-10T00:21:40.203Z,15.33
2018-05-10T00:24:07.779Z,15.07
2018-05-10T00:26:35.351Z,14.95
2018-05-10T00:29:03.012Z,14.94
2018-05-10T00:31:30.536Z,14.90
2018-05-10T00:33:58.436Z,14.45
2018-05-10T00:36:25.997Z,14.47
2018-05-10T00:38:53.576Z,14.51
2018-05-10T00:41:21.116Z,14.50
2018-05-10T00:43:48.714Z,14.25
2018-05-10T00:46:16.249Z,14.39
2018-05-10T00:48:43.904Z,14.58
2018-05-10T00:51:11.493Z,14.62
2018-05-10T00:53:39.434Z,14.79
2018-05-10T00:56:06.990Z,14.66
2018-05-10T00:58:34.657Z,14.71
2018-05-10T01:01:02.207Z,14.65
2018-05-10T01:03:29.793Z,14.57
2018-05-10T01:05:57.369Z,14.47
2018-05-10T01:08:24.928Z,14.51
2018-05-10T01:10:52.504Z,14.57
2018-05-10T01:13:20.024Z,14.48
2018-05-10T01:15:47.576Z,14.09
2018-05-10T01:18:15.106Z,14.46
2018-05-10T01:20:42.705Z,14.42
2018-05-10T01:23:10.233Z,14.23
2018-05-10T01:25:37.834Z,14.41
2018-05-10T01:28:05.390Z,14.19
2018-05-10T01:30:32.965Z,13.66
2018-05-10T01:33:00.492Z,13.84
2018-05-10T01:35:39.908Z,14.11
2018-05-10T01:38:07.447Z,14.21
2018-05-10T01:40:35.025Z,14.25
2018-05-10T01:43:02.552Z,14.45
2018-05-10T01:45:30.129Z,14.53
2018-05-10T01:47:57.654Z,14.54
2018-05-10T01:50:25.211Z,14.62
2018-05-10T01:52:52.758Z,14.44
2018-05-10T01:55:20.363Z,14.48
2018-05-10T01:57:47.890Z,14.36
2018-05-10T02:00:15.567Z,14.29
2018-05-10T02:02:43.177Z,14.24
2018-05-10T02:05:10.770Z,14.47
2018-05-10T02:07:38.326Z,14.36
2018-05-10T02:10:06.069Z,14.20
2018-05-10T02:12:33.629Z,14.36
2018-05-10T02:15:01.205Z,14.37
2018-05-10T02:17:28.737Z,14.37
2018-05-10T02:19:56.333Z,14.39
2018-05-10T02:22:24.018Z,14.24
2018-05-10T02:24:51.591Z,14.03
2018-05-10T02:27:19.118Z,13.97
2018-05-10T02:29:46.742Z,13.96
2018-05-10T02:32:14.300Z,14.17
2018-05-10T02:34:41.950Z,13.99
2018-05-10T02:37:09.521Z,13.82
2018-05-10T02:39:37.139Z,13.88
2018-05-10T02:42:04.754Z,14.41
2018-05-10T02:44:32.307Z,14.67
2018-05-10T02:46:59.910Z,14.73
2018-05-10T02:49:27.461Z,14.70
2018-05-10T02:51:55.085Z,14.74
2018-05-10T02:54:22.644Z,14.73
2018-05-10T02:56:50.217Z,14.54
2018-05-10T02:59:17.748Z,14.34
2018-05-10T03:01:45.426Z,14.25
2018-05-10T03:04:12.978Z,14.18
2018-05-10T03:06:40.648Z,14.28
2018-05-10T03:09:08.204Z,14.36
2018-05-10T03:11:35.880Z,14.47
2018-05-10T03:14:03.482Z,14.21
2018-05-10T03:16:31.061Z,14.47
2018-05-10T03:18:58.586Z,14.46
2018-05-10T03:21:26.166Z,14.45
2018-05-10T03:23:53.768Z,14.04
2018-05-10T03:26:21.392Z,14.54
2018-05-10T03:28:48.922Z,14.64
2018-05-10T03:31:16.851Z,14.52
2018-05-10T03:33:44.374Z,14.48
2018-05-10T03:36:12.401Z,14.57
2018-05-10T03:38:39.958Z,14.55
2018-05-10T03:41:07.557Z,14.67
2018-05-10T03:43:35.109Z,14.50
2018-05-10T03:46:02.685Z,13.84
2018-05-10T03:48:30.212Z,14.12
2018-05-10T03:50:57.794Z,14.40
2018-05-10T03:53:25.414Z,14.29
2018-05-10T03:55:52.999Z,14.45
2018-05-10T03:58:20.626Z,14.67
2018-05-10T04:00:48.287Z,14.87
2018-05-10T04:03:51.379Z,14.75
2018-05-10T04:06:30.710Z,14.90
2018-05-10T04:09:10.233Z,14.87
2018-05-10T04:11:37.931Z,14.91
2018-05-10T04:14:05.486Z,14.90
2018-05-10T04:16:33.037Z,14.97
2018-05-10T04:19:00.597Z,15.05
2018-05-10T04:21:28.256Z,15.03
2018-05-10T04:23:55.817Z,15.04
2018-05-10T04:26:23.376Z,14.96
2018-05-10T04:28:51.026Z,15.03
2018-05-10T04:31:18.674Z,15.09
2018-05-10T04:33:46.262Z,15.16
2018-05-10T04:36:14.125Z,15.08
2018-05-10T04:38:41.803Z,15.13
2018-05-10T04:41:09.362Z,15.28
2018-05-10T04:43:36.967Z,15.25
2018-05-10T04:46:04.516Z,15.29
2018-05-10T04:48:32.069Z,15.33
2018-05-10T04:50:59.602Z,15.37
2018-05-10T04:53:27.176Z,15.45
2018-05-10T04:55:54.771Z,15.48
2018-05-10T04:58:22.377Z,15.48
2018-05-10T05:00:49.906Z,15.48
2018-05-10T05:03:17.646Z,15.52
2018-05-10T05:05:45.257Z,15.62
2018-05-10T05:08:13.514Z,15.55
2018-05-10T05:10:41.192Z,15.68
2018-05-10T05:13:08.853Z,15.60
2018-05-10T05:15:36.392Z,15.73
2018-05-10T05:18:03.970Z,15.70
2018-05-10T05:20:31.498Z,15.72
2018-05-10T05:22:59.077Z,15.73
2018-05-10T05:25:26.601Z,15.75
2018-05-10T05:27:54.156Z,15.77
2018-05-10T05:30:21.682Z,15.84
2018-05-10T05:32:49.274Z,15.89
2018-05-10T05:35:16.809Z,15.87
2018-05-10T05:37:44.382Z,16.04
2018-05-10T05:40:11.942Z,16.08
2018-05-10T05:42:39.515Z,15.99
2018-05-10T05:45:07.036Z,15.95
2018-05-10T05:47:34.620Z,16.06
2018-05-10T05:50:05.173Z,16.08
2018-05-10T05:52:34.724Z,16.10
2018-05-10T05:55:03.772Z,15.97
2018-05-10T05:57:31.258Z,16.02
2018-05-10T05:59:58.831Z,16.06
2018-05-10T06:02:26.495Z,16.08
2018-05-10T06:04:54.566Z,16.19
2018-05-10T06:07:22.091Z,16.17
2018-05-10T06:09:49.639Z,16.12
2018-05-10T06:12:17.171Z,16.21
2018-05-10T06:14:44.805Z,16.29
2018-05-10T06:17:12.773Z,16.27
2018-05-10T06:19:40.549Z,16.37
2018-05-10T06:22:08.202Z,16.34
2018-05-10T06:24:35.754Z,16.25
2018-05-10T06:27:03.318Z,16.29
2018-05-10T06:29:30.907Z,16.21
2018-05-10T06:31:58.541Z,16.13
2018-05-10T06:34:26.193Z,16.17
2018-05-10T06:36:53.714Z,16.17
2018-05-10T06:39:21.321Z,16.14
2018-05-10T06:41:48.845Z,16.20
2018-05-10T06:44:16.398Z,16.03
2018-05-10T06:46:44.032Z,16.07
2018-05-10T06:49:11.630Z,15.96
2018-05-10T06:51:39.178Z,16.07
2018-05-10T06:54:06.886Z,16.06
2018-05-10T06:56:34.443Z,16.08
2018-05-10T06:59:02.015Z,16.02
2018-05-10T07:01:29.562Z,15.97
2018-05-10T07:03:57.240Z,15.98
2018-05-10T07:06:24.770Z,15.96
2018-05-10T07:08:52.345Z,15.90
2018-05-10T07:11:19.869Z,15.82
2018-05-10T07:13:47.398Z,15.92
2018-05-10T07:16:16.700Z,15.98
2018-05-10T07:18:44.322Z,15.96
2018-05-10T07:21:11.985Z,15.95
2018-05-10T07:23:40.006Z,16.01
2018-05-10T07:26:07.561Z,15.95
2018-05-10T07:28:35.138Z,15.99
2018-05-10T07:31:02.714Z,16.05
2018-05-10T07:33:30.243Z,15.85
2018-05-10T07:35:57.857Z,15.95
2018-05-10T07:38:25.413Z,15.85
2018-05-10T07:40:52.977Z,15.99
2018-05-10T07:43:20.525Z,15.92
2018-05-10T07:45:48.078Z,15.97
2018-05-10T07:48:15.652Z,15.96
2018-05-10T07:50:43.258Z,15.90
2018-05-10T07:53:10.895Z,15.93
2018-05-10T07:55:38.437Z,15.77
2018-05-10T07:58:05.966Z,15.74
2018-05-10T08:00:33.858Z,15.51
2018-05-10T08:03:01.419Z,15.63
2018-05-10T08:05:29.121Z,15.51
2018-05-10T08:07:57.096Z,15.42
2018-05-10T08:10:24.814Z,15.52
2018-05-10T08:12:52.898Z,15.50
2018-05-10T08:15:21.153Z,15.46
2018-05-10T08:17:48.982Z,15.38
2018-05-10T08:20:16.916Z,15.48
2018-05-10T08:22:44.967Z,15.45
2018-05-10T08:25:12.564Z,15.56
2018-05-10T08:27:56.066Z,15.40
2018-05-10T08:30:23.941Z,15.39
2018-05-10T08:32:51.701Z,15.70
2018-05-10T08:35:19.342Z,15.58
2018-05-10T08:37:47.273Z,15.48
2018-05-10T08:40:16.047Z,15.50
2018-05-10T08:42:43.578Z,15.48
2018-05-10T08:45:11.207Z,15.50
2018-05-10T08:47:39.097Z,15.58
2018-05-10T08:50:06.687Z,15.75
2018-05-10T08:52:34.868Z,15.82
2018-05-10T08:55:02.567Z,15.83
2018-05-10T08:57:30.646Z,15.94
2018-05-10T08:59:58.238Z,15.89
2018-05-10T09:02:26.203Z,15.86
2018-05-10T09:04:54.479Z,15.66
2018-05-10T09:07:22.425Z,15.46
2018-05-10T09:09:50.747Z,14.77
2018-05-10T09:12:18.798Z,14.56
2018-05-10T09:14:50.159Z,14.42
2018-05-10T09:17:18.310Z,14.37
2018-05-10T09:19:47.060Z,14.20
2018-05-10T09:22:14.914Z,14.28
2018-05-10T09:24:43.035Z,14.19
2018-05-10T09:27:10.868Z,14.14
2018-05-10T09:29:39.244Z,14.09
2018-05-10T09:32:07.773Z,13.89
2018-05-10T09:34:35.426Z,14.01
2018-05-10T09:37:03.086Z,13.92
2018-05-10T09:39:31.002Z,13.95
2018-05-10T09:41:59.058Z,13.84
2018-05-10T09:44:26.649Z,13.65
2018-05-10T09:46:54.963Z,13.79
2018-05-10T09:49:22.489Z,13.74
2018-05-10T09:51:50.374Z,13.81
2018-05-10T09:54:17.970Z,13.76
2018-05-10T09:56:46.545Z,13.65
2018-05-10T09:59:15.410Z,13.62
2018-05-10T10:01:42.998Z,13.67
2018-05-10T10:04:10.756Z,13.55
2018-05-10T10:06:38.409Z,13.38
2018-05-10T10:09:05.967Z,13.50
2018-05-10T10:11:33.654Z,13.44
2018-05-10T10:14:01.295Z,13.45
2018-05-10T10:16:28.886Z,13.38
2018-05-10T10:18:56.616Z,13.41
2018-05-10T10:21:24.166Z,13.19
2018-05-10T10:23:51.736Z,13.49
2018-05-10T10:26:19.295Z,13.32
2018-05-10T10:28:49.474Z,13.25
2018-05-10T10:31:17.601Z,13.31
2018-05-10T10:33:45.146Z,13.33
2018-05-10T10:36:13.024Z,13.44
2018-05-10T10:38:41.458Z,13.51
2018-05-10T10:41:10.049Z,13.29
2018-05-10T10:43:38.455Z,13.70
2018-05-10T10:46:06.016Z,13.47
2018-05-10T10:48:34.396Z,13.51
2018-05-10T10:51:02.365Z,13.67
2018-05-10T10:53:30.030Z,13.72
2018-05-10T10:55:58.611Z,13.66
2018-05-10T10:58:27.249Z,13.86
2018-05-10T11:00:55.428Z,13.83
2018-05-10T11:03:23.629Z,14.07
2018-05-10T11:05:51.554Z,13.97
2018-05-10T11:08:20.234Z,14.08
2018-05-10T11:10:47.758Z,14.08
2018-05-10T11:13:15.480Z,14.15
2018-05-10T11:15:42.978Z,14.24
2018-05-10T11:18:10.620Z,14.36
2018-05-10T11:20:38.198Z,14.50
2018-05-10T11:23:05.749Z,14.71
2018-05-10T11:25:33.326Z,15.01
2018-05-10T11:28:00.876Z,15.10
2018-05-10T11:35:29.195Z,15.15
2018-05-10T11:37:56.851Z,15.28
2018-05-10T11:40:24.385Z,15.34
2018-05-10T11:42:51.940Z,15.40
2018-05-10T11:45:19.539Z,15.55
2018-05-10T11:47:47.169Z,15.34
2018-05-10T11:50:14.717Z,15.36
2018-05-10T11:52:42.309Z,15.61
2018-05-10T11:55:09.868Z,15.76
2018-05-10T11:57:37.426Z,15.58
2018-05-10T12:00:04.953Z,15.84
2018-05-10T12:02:32.579Z,15.72
2018-05-10T12:05:00.110Z,15.85
2018-05-10T12:07:27.774Z,15.94
2018-05-10T12:09:55.315Z,15.94
2018-05-10T12:12:24.173Z,15.53
2018-05-10T12:14:52.392Z,15.84
2018-05-10T12:17:20.470Z,15.98
2018-05-10T12:19:48.169Z,16.02
2018-05-10T12:22:16.724Z,16.08
2018-05-10T12:24:44.783Z,15.85
2018-05-10T12:27:12.753Z,16.02
2018-05-10T12:29:40.497Z,15.81
2018-05-10T12:32:08.837Z,15.73
2018-05-10T12:34:36.387Z,16.05
2018-05-10T12:37:04.613Z,15.92
2018-05-10T12:39:32.221Z,15.84
2018-05-10T12:41:59.952Z,16.05
2018-05-10T12:44:27.946Z,16.31
2018-05-10T12:46:56.821Z,16.19
2018-05-10T12:49:24.475Z,16.01
2018-05-10T12:51:52.626Z,16.10
2018-05-10T12:54:20.929Z,15.96
2018-05-10T12:56:49.005Z,15.97
2018-05-10T12:59:16.967Z,15.76
2018-05-10T13:01:44.521Z,15.83
2018-05-10T13:04:12.607Z,15.92
2018-05-10T13:06:40.264Z,16.11
2018-05-10T13:09:07.840Z,15.83
2018-05-10T13:11:35.488Z,15.73
2018-05-10T13:14:03.243Z,15.71
2018-05-10T13:16:30.836Z,15.71
2018-05-10T13:18:58.527Z,15.42
2018-05-10T13:21:26.052Z,15.64
2018-05-10T13:23:54.096Z,15.73
2018-05-10T13:26:22.003Z,15.72
2018-05-10T13:28:50.003Z,15.98
2018-05-10T13:31:17.514Z,16.06
2018-05-10T13:33:45.289Z,16.08
2018-05-10T13:36:13.336Z,16.19
2018-05-10T13:38:41.215Z,16.18
2018-05-10T13:41:08.895Z,16.37
2018-05-10T13:43:36.798Z,16.48
2018-05-10T13:46:04.500Z,16.70
2018-05-10T13:48:32.354Z,16.42
2018-05-10T13:51:00.426Z,16.48
2018-05-10T13:53:28.110Z,16.57
2018-05-10T13:55:56.061Z,16.84
2018-05-10T13:58:24.260Z,17.03
2018-05-10T14:00:52.068Z,16.87
2018-05-10T14:03:19.665Z,16.95
2018-05-10T14:05:47.446Z,16.94
2018-05-10T14:08:16.491Z,16.91
2018-05-10T14:10:47.598Z,16.93
2018-05-10T14:13:15.723Z,16.96
2018-05-10T14:15:43.746Z,17.29
2018-05-10T14:18:12.428Z,17.61
2018-05-10T14:20:40.340Z,17.47
2018-05-10T14:23:07.883Z,17.45
2018-05-10T14:25:36.164Z,17.38
2018-05-10T14:28:03.854Z,17.53
2018-05-10T14:30:32.140Z,17.59
2018-05-10T14:32:59.692Z,17.91
2018-05-10T14:35:27.247Z,18.25
2018-05-10T14:37:54.807Z,18.45
2018-05-10T14:40:22.779Z,18.36
2018-05-10T14:42:50.406Z,18.35
2018-05-10T14:45:18.378Z,17.72
2018-05-10T14:47:45.929Z,17.69
2018-05-10T14:50:14.249Z,17.63
2018-05-10T14:55:23.833Z,17.36
2018-05-10T14:57:52.386Z,17.41
2018-05-10T15:00:19.967Z,17.42
2018-05-10T15:02:47.822Z,17.41
2018-05-10T15:05:15.770Z,17.57
2018-05-10T15:07:43.945Z,17.47
2018-05-10T15:10:12.122Z,17.43
2018-05-10T15:12:41.459Z,17.25
2018-05-10T15:15:09.296Z,17.27
2018-05-10T15:17:36.911Z,16.94
2018-05-10T15:20:04.836Z,16.82
2018-05-10T15:22:32.408Z,16.79
2018-05-10T15:25:00.018Z,16.66
2018-05-10T15:27:27.602Z,16.39
2018-05-10T15:29:55.243Z,16.37
2018-05-10T15:32:23.144Z,16.25
2018-05-10T15:34:51.970Z,16.27
2018-05-10T15:37:20.046Z,16.32
2018-05-10T15:39:47.961Z,16.28
2018-05-10T15:42:15.766Z,16.33
2018-05-10T15:44:43.857Z,16.13
2018-05-10T15:47:12.914Z,16.18
2018-05-10T15:49:43.779Z,16.12
2018-05-10T15:52:12.061Z,16.24
2018-05-10T15:54:39.611Z,16.28
2018-05-10T15:57:07.436Z,16.40
2018-05-10T15:59:35.300Z,16.52
2018-05-10T16:02:02.973Z,16.55
2018-05-10T16:04:31.313Z,16.55
2018-05-10T16:06:59.002Z,16.71
2018-05-10T16:09:27.080Z,16.63
2018-05-10T16:11:54.679Z,16.53
2018-05-10T16:14:22.295Z,16.50
2018-05-10T16:16:50.786Z,16.48
2018-05-10T16:19:18.387Z,16.49
2018-05-10T16:21:45.963Z,16.39
2018-05-10T16:24:14.068Z,16.57
2018-05-10T16:26:41.614Z,16.58
2018-05-10T16:29:09.198Z,16.52
2018-05-10T16:31:36.851Z,16.44
2018-05-10T16:34:04.513Z,16.55
2018-05-10T16:36:32.175Z,16.57
2018-05-10T16:38:59.837Z,16.50
2018-05-10T16:41:28.010Z,16.72
2018-05-10T16:43:55.569Z,16.65
2018-05-10T16:46:24.484Z,16.69
2018-05-10T16:48:52.428Z,16.32
2018-05-10T16:51:20.091Z,16.42
2018-05-10T16:53:48.221Z,16.33
2018-05-10T16:56:16.189Z,16.42
2018-05-10T16:58:43.725Z,16.21
2018-05-10T17:01:11.354Z,16.34
2018-05-10T17:03:42.022Z,16.26
2018-05-10T17:06:10.043Z,16.27
2018-05-10T17:08:38.153Z,16.09
2018-05-10T17:11:06.062Z,16.19
2018-05-10T17:13:33.760Z,16.13
2018-05-10T17:16:01.609Z,16.08
2018-05-10T17:18:29.320Z,16.16
2018-05-10T17:20:59.820Z,16.16
2018-05-10T17:23:30.903Z,16.31
2018-05-10T17:25:58.567Z,16.25
2018-05-10T17:28:27.297Z,16.40
2018-05-10T17:30:54.960Z,17.01
2018-05-10T17:33:22.449Z,17.14
2018-05-10T17:35:50.457Z,17.12
2018-05-10T17:38:19.227Z,17.66
2018-05-10T17:40:46.913Z,17.45
2018-05-10T17:43:14.518Z,16.72
2018-05-10T17:45:42.479Z,16.62
2018-05-10T17:48:10.431Z,17.98
2018-05-10T17:50:37.970Z,17.90
2018-05-10T17:53:06.270Z,17.13
2018-05-10T17:55:33.944Z,17.41
2018-05-10T17:58:01.605Z,16.40
2018-05-10T18:00:29.648Z,16.36
2018-05-10T18:02:57.207Z,16.47
2018-05-10T18:05:24.731Z,16.20
2018-05-10T18:07:53.381Z,16.29
2018-05-10T18:10:20.986Z,16.16
2018-05-10T18:12:48.605Z,16.13
2018-05-10T18:15:16.142Z,16.02
2018-05-10T18:17:44.565Z,15.99
2018-05-10T18:20:12.496Z,15.82
2018-05-10T18:22:40.119Z,15.86
2018-05-10T18:25:07.849Z,15.80
2018-05-10T18:27:36.474Z,15.67
2018-05-10T18:30:04.388Z,15.72
2018-05-10T18:32:32.058Z,15.70
2018-05-10T18:35:00.528Z,15.63
2018-05-10T18:37:28.191Z,15.62
2018-05-10T18:39:55.713Z,15.49
2018-05-10T18:42:23.266Z,15.62
2018-05-10T18:44:50.817Z,15.59
2018-05-10T18:47:18.429Z,15.59
2018-05-10T18:49:45.945Z,15.53
2018-05-10T18:52:13.501Z,15.58
2018-05-10T18:54:41.068Z,15.54
2018-05-10T18:57:08.604Z,15.50
2018-05-10T18:59:36.133Z,15.46
2018-05-10T19:02:03.686Z,15.47
2018-05-10T19:04:31.208Z,15.27
2018-05-10T19:07:01.736Z,15.04
2018-05-10T19:09:29.489Z,15.08
2018-05-10T19:11:57.061Z,15.04
2018-05-10T19:14:24.594Z,15.04
2018-05-10T19:16:52.215Z,15.01
2018-05-10T19:19:20.295Z,15.11
2018-05-10T19:21:47.817Z,15.14
2018-05-10T19:24:15.389Z,15.13
2018-05-10T19:26:42.968Z,15.10
2018-05-10T19:29:10.577Z,15.05
2018-05-10T19:31:38.062Z,15.04
2018-05-10T19:34:05.612Z,15.00
2018-05-10T19:36:33.139Z,14.94
2018-05-10T19:39:00.687Z,15.01
2018-05-10T19:41:28.220Z,15.08
2018-05-10T19:43:55.795Z,15.11
2018-05-10T19:46:25.501Z,15.06
2018-05-10T19:48:53.049Z,14.97
2018-05-10T19:51:20.612Z,14.98
2018-05-10T19:53:48.180Z,14.73
2018-05-10T19:56:15.705Z,14.86
2018-05-10T19:58:43.265Z,14.86
2018-05-10T20:01:10.847Z,14.87
2018-05-10T20:03:38.441Z,14.97
2018-05-10T20:06:05.967Z,14.81
2018-05-10T20:08:33.681Z,14.67
2018-05-10T20:11:01.197Z,14.70
2018-05-10T20:13:28.850Z,14.68
2018-05-10T20:15:56.408Z,14.67
2018-05-10T20:18:23.978Z,14.73
2018-05-10T20:20:51.526Z,14.75
2018-05-10T20:23:19.110Z,14.62
2018-05-10T20:25:46.658Z,14.67
2018-05-10T20:28:14.386Z,14.68
2018-05-10T20:30:41.863Z,14.64
2018-05-10T20:33:09.530Z,14.70
2018-05-10T20:35:37.269Z,14.66
2018-05-10T20:38:04.841Z,14.68
2018-05-10T20:40:32.367Z,14.62
2018-05-10T20:42:59.954Z,14.64
2018-05-10T20:45:27.479Z,14.46
2018-05-10T20:47:55.029Z,14.39
2018-05-10T20:50:22.662Z,14.39
2018-05-10T20:52:51.086Z,14.41
2018-05-10T20:55:18.881Z,14.32
2018-05-10T20:57:46.457Z,14.21
2018-05-10T21:00:14.014Z,14.30
2018-05-10T21:02:41.566Z,14.33
2018-05-10T21:05:09.144Z,14.25
2018-05-10T21:07:36.798Z,14.29
2018-05-10T21:10:04.475Z,14.19
2018-05-10T21:12:42.871Z,14.16
2018-05-10T21:15:10.452Z,14.22
2018-05-10T21:17:38.000Z,14.11
2018-05-10T21:20:05.650Z,14.10
2018-05-10T21:22:33.213Z,14.18
2018-05-10T21:25:00.875Z,14.22
2018-05-10T21:27:28.435Z,14.04
2018-05-10T21:29:56.097Z,14.05
2018-05-10T21:32:23.657Z,14.11
2018-05-10T21:34:51.250Z,14.00
2018-05-10T21:37:18.777Z,14.13
2018-05-10T21:39:46.355Z,14.20
2018-05-10T21:42:13.877Z,14.19
2018-05-10T21:44:41.614Z,14.19
2018-05-10T21:47:09.231Z,14.03
2018-05-10T21:49:48.553Z,14.03
2018-05-10T21:52:16.091Z,13.96
2018-05-10T21:54:43.683Z,13.94
2018-05-10T21:57:11.217Z,13.81
2018-05-10T21:59:38.794Z,13.79
2018-05-10T22:02:06.351Z,13.71
2018-05-10T22:04:33.914Z,13.71
2018-05-10T22:07:01.482Z,13.80
2018-05-10T22:09:29.073Z,13.88
2018-05-10T22:11:56.671Z,13.97
2018-05-10T22:14:24.233Z,13.88
2018-05-10T22:16:51.811Z,13.77
2018-05-10T22:19:19.474Z,13.77
2018-05-10T22:21:47.033Z,13.84
2018-05-10T22:24:14.615Z,13.78
2018-05-10T22:26:44.837Z,13.78
2018-05-10T22:29:13.397Z,13.75
2018-05-10T22:31:41.372Z,13.66
2018-05-10T22:34:09.950Z,13.75
2018-05-10T22:36:38.738Z,13.59
2018-05-10T22:39:06.503Z,13.66
2018-05-10T22:41:34.840Z,13.58
2018-05-10T22:44:03.705Z,13.50
2018-05-10T22:46:32.557Z,13.66
2018-05-10T22:49:01.350Z,13.57
2018-05-10T22:51:29.944Z,13.56
2018-05-10T22:53:57.901Z,13.44
2018-05-10T22:56:25.779Z,13.42
2018-05-10T22:58:55.378Z,13.46
2018-05-10T23:01:25.496Z,13.43
2018-05-10T23:03:53.263Z,13.49
2018-05-10T23:06:21.552Z,13.53
2018-05-10T23:08:49.084Z,13.49
2018-05-10T23:11:17.958Z,13.28
2018-05-10T23:13:48.820Z,13.35
2018-05-10T23:16:17.732Z,13.20
2018-05-10T23:18:45.973Z,13.03
2018-05-10T23:21:13.870Z,13.03
2018-05-10T23:23:41.468Z,13.10
2018-05-10T23:26:09.076Z,13.02
2018-05-10T23:28:37.972Z,13.02
2018-05-10T23:31:05.597Z,12.89
2018-05-10T23:33:34.827Z,12.81
2018-05-10T23:36:03.205Z,12.39
2018-05-10T23:38:30.906Z,12.71
2018-05-10T23:40:59.044Z,12.59
2018-05-10T23:43:31.285Z,12.56
2018-05-10T23:45:59.897Z,12.44
2018-05-10T23:48:28.200Z,12.41
2018-05-10T23:50:55.745Z,12.38
2018-05-10T23:53:23.802Z,12.45
2018-05-10T23:55:51.671Z,12.33
2018-05-10T23:58:19.754Z,12.45
